Time;durP1;ratioP1;P1;durP2;ratioP2;P2;SDS_P1;SDS_P2;PMS_P1;PMS_P2;Temp;Humidity;BMP_temperature;BMP_pressure;BME280_temperature;BME280_humidity;BME280_pressure;Samples;Min_cycle;Max_cycle;Signal;HPM_P1;HPM_P2
2022/07/27 00:00:26;;;;;;;;;;;11.80;61.90;;;;;;5072340;28;19917;-71
2022/07/27 00:02:53;;;;;;;;;;;11.90;61.80;;;;;;5072580;28;19912;-72
2022/07/27 00:05:19;;;;;;;;;;;11.90;61.40;;;;;;5054369;28;20326;-71
2022/07/27 00:07:46;;;;;;;;;;;12.00;61.50;;;;;;5072253;28;20374;-71
2022/07/27 00:10:13;;;;;;;;;;;12.00;61.30;;;;;;5072161;28;19908;-70
2022/07/27 00:12:39;;;;;;;;;;;12.00;61.30;;;;;;5072081;28;19915;-68
2022/07/27 00:15:06;;;;;;;;;;;12.10;61.50;;;;;;5072291;28;19919;-68
2022/07/27 00:17:32;;;;;;;;;;;12.20;61.40;;;;;;5072234;28;20316;-70
2022/07/27 00:19:59;;;;;;;;;;;12.20;61.10;;;;;;5072063;28;20394;-68
2022/07/27 00:22:26;;;;;;;;;;;12.20;61.20;;;;;;5072141;28;20355;-69
2022/07/27 00:24:52;;;;;;;;;;;12.30;61.30;;;;;;5051158;28;19978;-69
2022/07/27 00:27:19;;;;;;;;;;;12.30;60.70;;;;;;5051965;28;20008;-69
2022/07/27 00:29:45;;;;;;;;;;;12.40;60.10;;;;;;5051700;28;19909;-69
2022/07/27 00:32:12;;;;;;;;;;;12.50;60.00;;;;;;5051953;28;19963;-68
2022/07/27 00:34:38;;;;;;;;;;;12.50;59.70;;;;;;5052117;28;19933;-68
2022/07/27 00:37:05;;;;;;;;;;;12.50;60.00;;;;;;5052002;28;19909;-69
2022/07/27 00:39:31;;;;;;;;;;;12.60;59.30;;;;;;5051861;28;20255;-68
2022/07/27 00:41:58;;;;;;;;;;;12.70;59.60;;;;;;5051929;28;20373;-68
2022/07/27 00:44:25;;;;;;;;;;;12.70;58.80;;;;;;5051825;28;20267;-69
2022/07/27 00:46:52;;;;;;;;;;;12.70;58.40;;;;;;5051686;28;19975;-68
2022/07/27 00:49:18;;;;;;;;;;;12.80;58.40;;;;;;5051691;28;19909;-69
2022/07/27 00:51:45;;;;;;;;;;;12.80;57.80;;;;;;5051301;28;19955;-68
2022/07/27 00:54:12;;;;;;;;;;;12.90;57.60;;;;;;5051609;28;20324;-69
2022/07/27 00:56:38;;;;;;;;;;;12.80;58.20;;;;;;5051863;28;19913;-69
2022/07/27 00:59:05;;;;;;;;;;;12.90;56.90;;;;;;5051687;28;19923;-68
2022/07/27 01:01:31;;;;;;;;;;;12.90;57.40;;;;;;5052043;28;20351;-69
2022/07/27 01:03:58;;;;;;;;;;;12.90;56.90;;;;;;5051624;28;19956;-69
2022/07/27 01:06:24;;;;;;;;;;;13.00;57.10;;;;;;5052029;28;19909;-68
2022/07/27 01:08:52;;;;;;;;;;;13.00;57.00;;;;;;5033957;28;19920;-69
2022/07/27 01:11:18;;;;;;;;;;;13.00;56.60;;;;;;5051315;28;19920;-68
2022/07/27 01:13:45;;;;;;;;;;;13.10;56.30;;;;;;5051557;28;19956;-68
2022/07/27 01:16:11;;;;;;;;;;;13.10;56.10;;;;;;5051841;28;20260;-68
2022/07/27 01:18:38;;;;;;;;;;;13.20;56.60;;;;;;5033919;28;19917;-68
2022/07/27 01:21:06;;;;;;;;;;;13.20;55.90;;;;;;5051305;28;20347;-68
2022/07/27 01:23:32;;;;;;;;;;;13.20;56.70;;;;;;5060265;28;19974;-68
2022/07/27 01:25:59;;;;;;;;;;;13.20;56.90;;;;;;5071366;28;19909;-69
2022/07/27 01:28:26;;;;;;;;;;;13.20;55.70;;;;;;5071815;28;19909;-69
2022/07/27 01:30:53;;;;;;;;;;;13.30;55.40;;;;;;5071086;28;19912;-69
2022/07/27 01:33:24;;;;;;;;;;;13.30;55.40;;;;;;5071294;28;19916;-69
2022/07/27 01:35:52;;;;;;;;;;;13.30;56.00;;;;;;5072081;28;19927;-69
2022/07/27 01:38:18;;;;;;;;;;;13.40;54.50;;;;;;5074546;28;20283;-69
2022/07/27 01:40:45;;;;;;;;;;;13.40;54.10;;;;;;5074716;28;20304;-68
2022/07/27 01:43:11;;;;;;;;;;;13.50;54.40;;;;;;5074951;28;19955;-68
2022/07/27 01:45:38;;;;;;;;;;;13.40;54.40;;;;;;5075049;28;19908;-69
2022/07/27 01:48:05;;;;;;;;;;;13.50;54.70;;;;;;5074913;28;20415;-69
2022/07/27 01:50:32;;;;;;;;;;;13.60;53.60;;;;;;5074691;28;19908;-69
2022/07/27 01:52:58;;;;;;;;;;;13.60;54.40;;;;;;5075068;28;19915;-69
2022/07/27 01:55:25;;;;;;;;;;;13.60;53.40;;;;;;5074869;28;19908;-69
2022/07/27 01:57:51;;;;;;;;;;;13.70;52.80;;;;;;5056633;28;19909;-69
2022/07/27 02:00:18;;;;;;;;;;;13.70;53.60;;;;;;5074471;28;19917;-69
2022/07/27 02:02:44;;;;;;;;;;;13.70;53.50;;;;;;5074547;28;19919;-69
2022/07/27 02:05:11;;;;;;;;;;;13.70;53.80;;;;;;5074649;28;19912;-69
2022/07/27 02:07:38;;;;;;;;;;;13.70;53.50;;;;;;5074453;28;20446;-69
2022/07/27 02:10:05;;;;;;;;;;;13.70;53.60;;;;;;5074692;28;19978;-69
2022/07/27 02:12:35;;;;;;;;;;;13.70;53.90;;;;;;5074683;28;19935;-69
2022/07/27 02:15:09;;;;;;;;;;;13.70;53.90;;;;;;5074440;28;19964;-69
2022/07/27 02:17:36;;;;;;;;;;;13.70;53.60;;;;;;5074567;28;19922;-69
2022/07/27 02:20:03;;;;;;;;;;;13.70;52.90;;;;;;5074143;28;19927;-69
2022/07/27 02:22:30;;;;;;;;;;;13.70;53.60;;;;;;5074476;28;20338;-69
2022/07/27 02:24:56;;;;;;;;;;;13.90;54.00;;;;;;5074369;28;20384;-69
2022/07/27 02:27:23;;;;;;;;;;;13.80;54.10;;;;;;5074259;28;19909;-70
2022/07/27 02:29:49;;;;;;;;;;;13.90;53.60;;;;;;5074013;28;20404;-69
2022/07/27 02:32:16;;;;;;;;;;;13.90;53.40;;;;;;5074223;28;19916;-70
2022/07/27 02:34:43;;;;;;;;;;;13.90;53.90;;;;;;5074055;28;19919;-70
2022/07/27 02:37:09;;;;;;;;;;;13.90;53.70;;;;;;5074272;28;20358;-70
2022/07/27 02:39:36;;;;;;;;;;;14.00;53.60;;;;;;5074242;28;19923;-69
2022/07/27 02:42:03;;;;;;;;;;;14.00;53.60;;;;;;5073764;28;19912;-69
2022/07/27 02:44:29;;;;;;;;;;;14.00;53.10;;;;;;5074124;28;20273;-70
2022/07/27 02:46:56;;;;;;;;;;;14.10;53.00;;;;;;5073243;28;19909;-70
2022/07/27 02:49:22;;;;;;;;;;;14.00;54.00;;;;;;5056035;28;19912;-69
2022/07/27 02:51:50;;;;;;;;;;;14.10;54.40;;;;;;5074149;28;20011;-69
2022/07/27 02:54:18;;;;;;;;;;;14.10;53.90;;;;;;5073527;28;20368;-70
2022/07/27 02:56:44;;;;;;;;;;;14.10;54.00;;;;;;5073665;28;19967;-70
2022/07/27 02:59:11;;;;;;;;;;;14.20;53.50;;;;;;5073727;28;19920;-70
2022/07/27 03:01:37;;;;;;;;;;;14.20;53.50;;;;;;5073523;28;19958;-70
2022/07/27 03:04:04;;;;;;;;;;;14.20;53.80;;;;;;5073368;28;19916;-70
2022/07/27 03:06:31;;;;;;;;;;;14.20;53.70;;;;;;5073396;28;19975;-70
2022/07/27 03:08:57;;;;;;;;;;;14.20;54.10;;;;;;5073322;28;19908;-70
2022/07/27 03:11:24;;;;;;;;;;;14.20;53.80;;;;;;5073200;28;19908;-69
2022/07/27 03:13:50;;;;;;;;;;;14.20;53.70;;;;;;5073175;28;19908;-69
2022/07/27 03:16:17;;;;;;;;;;;14.20;53.30;;;;;;5073107;28;19909;-70
2022/07/27 03:18:43;;;;;;;;;;;14.30;53.50;;;;;;5073366;28;19916;-69
2022/07/27 03:21:10;;;;;;;;;;;14.30;53.50;;;;;;5073190;28;20038;-69
2022/07/27 03:23:36;;;;;;;;;;;14.40;53.50;;;;;;5073083;28;19931;-69
2022/07/27 03:26:03;;;;;;;;;;;14.40;53.50;;;;;;5073142;28;19913;-69
2022/07/27 03:28:29;;;;;;;;;;;14.40;53.20;;;;;;5072996;28;19912;-70
2022/07/27 03:30:56;;;;;;;;;;;14.40;54.20;;;;;;5072587;28;20323;-69
2022/07/27 03:33:23;;;;;;;;;;;14.50;54.00;;;;;;5072308;28;20286;-69
2022/07/27 03:35:49;;;;;;;;;;;14.50;53.00;;;;;;5072702;28;19952;-69
2022/07/27 03:38:16;;;;;;;;;;;14.50;53.00;;;;;;5054831;28;19908;-70
2022/07/27 03:40:44;;;;;;;;;;;14.50;53.20;;;;;;5072670;28;19916;-70
2022/07/27 03:43:10;;;;;;;;;;;14.50;53.80;;;;;;5073111;28;19944;-70
2022/07/27 03:45:37;;;;;;;;;;;14.60;54.90;;;;;;5072661;28;19912;-69
2022/07/27 03:48:03;;;;;;;;;;;14.60;53.60;;;;;;5072597;28;19908;-69
2022/07/27 03:50:30;;;;;;;;;;;14.60;53.10;;;;;;5072317;28;19999;-69
2022/07/27 03:52:57;;;;;;;;;;;14.50;52.90;;;;;;5072273;28;19912;-69
2022/07/27 03:55:24;;;;;;;;;;;14.60;53.30;;;;;;5072143;28;20290;-69
2022/07/27 03:57:51;;;;;;;;;;;14.60;53.30;;;;;;5072264;28;19913;-69
2022/07/27 04:00:18;;;;;;;;;;;14.70;52.80;;;;;;5072092;28;19959;-70
2022/07/27 04:02:45;;;;;;;;;;;14.70;53.80;;;;;;5072396;28;19912;-69
2022/07/27 04:05:12;;;;;;;;;;;14.70;52.50;;;;;;5072582;28;19909;-69
2022/07/27 04:07:38;;;;;;;;;;;14.70;53.60;;;;;;5072335;28;19959;-69
2022/07/27 04:10:05;;;;;;;;;;;14.80;52.40;;;;;;5072207;28;19974;-70
2022/07/27 04:12:32;;;;;;;;;;;14.70;53.00;;;;;;5071829;28;20267;-69
2022/07/27 04:14:58;;;;;;;;;;;14.70;53.30;;;;;;5054385;28;20371;-70
2022/07/27 04:17:25;;;;;;;;;;;14.80;52.20;;;;;;5072336;28;19912;-69
2022/07/27 04:19:51;;;;;;;;;;;14.80;53.40;;;;;;5072198;28;20011;-69
2022/07/27 04:22:18;;;;;;;;;;;14.90;51.60;;;;;;5072265;28;19922;-69
2022/07/27 04:24:45;;;;;;;;;;;14.90;52.20;;;;;;5071617;28;20003;-69
2022/07/27 04:27:12;;;;;;;;;;;14.90;51.70;;;;;;5072075;28;19931;-70
2022/07/27 04:29:38;;;;;;;;;;;14.90;51.90;;;;;;5071681;28;19915;-70
2022/07/27 04:32:05;;;;;;;;;;;14.90;52.50;;;;;;5072002;28;20290;-70
2022/07/27 04:34:31;;;;;;;;;;;14.90;51.10;;;;;;5071879;28;19908;-69
2022/07/27 04:36:58;;;;;;;;;;;15.00;52.00;;;;;;5071694;28;19913;-69
2022/07/27 04:39:25;;;;;;;;;;;15.00;52.10;;;;;;5071947;28;19921;-71
2022/07/27 04:41:51;;;;;;;;;;;15.00;52.30;;;;;;5071661;28;20378;-71
2022/07/27 04:44:18;;;;;;;;;;;15.00;52.40;;;;;;5071844;28;19908;-71
2022/07/27 04:46:44;;;;;;;;;;;15.00;51.70;;;;;;5071799;28;19912;-71
2022/07/27 04:49:11;;;;;;;;;;;15.00;51.10;;;;;;5071859;28;19919;-71
2022/07/27 04:51:37;;;;;;;;;;;15.00;51.10;;;;;;5071577;28;19913;-71
2022/07/27 04:54:04;;;;;;;;;;;15.00;50.70;;;;;;5071546;28;20012;-71
2022/07/27 04:56:31;;;;;;;;;;;15.10;50.70;;;;;;5071837;28;20267;-71
2022/07/27 04:58:57;;;;;;;;;;;15.10;52.10;;;;;;5071403;28;20015;-71
2022/07/27 05:01:24;;;;;;;;;;;15.00;51.10;;;;;;5071816;28;19917;-70
2022/07/27 05:03:51;;;;;;;;;;;15.00;50.60;;;;;;5071728;28;19909;-70
2022/07/27 05:06:17;;;;;;;;;;;15.10;51.70;;;;;;5071700;28;19909;-70
2022/07/27 05:08:44;;;;;;;;;;;15.10;52.50;;;;;;5071987;28;20402;-70
2022/07/27 05:11:10;;;;;;;;;;;15.10;50.40;;;;;;5072987;28;20385;-71
2022/07/27 05:13:39;;;;;;;;;;;15.10;50.10;;;;;;5075842;28;19913;-71
2022/07/27 05:16:09;;;;;;;;;;;15.00;49.90;;;;;;5075468;28;20236;-71
2022/07/27 05:18:39;;;;;;;;;;;15.00;50.70;;;;;;5075663;28;20413;-72
2022/07/27 05:21:05;;;;;;;;;;;15.00;53.20;;;;;;5074749;28;19992;-71
2022/07/27 05:23:32;;;;;;;;;;;15.10;51.40;;;;;;5048617;28;19921;-72
2022/07/27 05:25:59;;;;;;;;;;;15.10;51.60;;;;;;5055181;28;20052;-71
2022/07/27 05:28:25;;;;;;;;;;;15.00;52.30;;;;;;5055243;28;19913;-71
2022/07/27 05:30:52;;;;;;;;;;;15.10;51.40;;;;;;5055350;28;19948;-71
2022/07/27 05:33:18;;;;;;;;;;;15.10;51.10;;;;;;5055263;28;20251;-71
2022/07/27 05:35:45;;;;;;;;;;;15.00;51.10;;;;;;5055295;28;19909;-71
2022/07/27 05:38:11;;;;;;;;;;;15.00;51.00;;;;;;5054994;28;20051;-72
2022/07/27 05:40:39;;;;;;;;;;;15.00;49.80;;;;;;5054600;28;19924;-72
2022/07/27 05:43:06;;;;;;;;;;;15.10;48.70;;;;;;5054914;28;19923;-71
2022/07/27 05:45:32;;;;;;;;;;;15.10;49.00;;;;;;5043601;28;19908;-71
2022/07/27 05:47:59;;;;;;;;;;;15.00;49.20;;;;;;5053054;28;19940;-71
2022/07/27 05:50:26;;;;;;;;;;;15.10;49.00;;;;;;5054594;28;19940;-71
2022/07/27 05:52:52;;;;;;;;;;;15.10;49.10;;;;;;5055050;28;20004;-71
2022/07/27 05:55:19;;;;;;;;;;;15.10;49.30;;;;;;5050515;28;19916;-71
2022/07/27 05:57:45;;;;;;;;;;;15.00;51.00;;;;;;5054369;28;19913;-71
2022/07/27 06:00:12;;;;;;;;;;;15.00;50.40;;;;;;5054873;28;19971;-71
2022/07/27 06:02:39;;;;;;;;;;;15.00;51.40;;;;;;5049958;28;19931;-69
2022/07/27 06:05:06;;;;;;;;;;;15.00;50.40;;;;;;5052662;28;19925;-71
2022/07/27 06:10:17;;;;;;;;;;;14.90;50.40;;;;;;5054211;28;19924;-71
2022/07/27 06:12:44;;;;;;;;;;;14.90;50.90;;;;;;5036609;28;19953;-71
2022/07/27 06:15:10;;;;;;;;;;;14.90;50.80;;;;;;5052394;28;20343;-71
2022/07/27 06:17:37;;;;;;;;;;;14.90;50.40;;;;;;5049535;28;20267;-71
2022/07/27 06:20:04;;;;;;;;;;;14.90;50.40;;;;;;5054199;28;19920;-71
2022/07/27 06:22:30;;;;;;;;;;;14.90;50.50;;;;;;5053313;28;19909;-71
2022/07/27 06:24:57;;;;;;;;;;;15.00;50.80;;;;;;5071217;28;19913;-70
2022/07/27 06:27:24;;;;;;;;;;;15.00;51.20;;;;;;5065262;28;19908;-74
2022/07/27 06:29:51;;;;;;;;;;;15.00;52.00;;;;;;5071161;28;20011;-66
2022/07/27 06:32:17;;;;;;;;;;;15.00;52.20;;;;;;5064449;28;19916;-66
2022/07/27 06:34:44;;;;;;;;;;;14.90;52.50;;;;;;5069297;28;19916;-65
2022/07/27 06:37:10;;;;;;;;;;;14.80;52.80;;;;;;5071403;28;20011;-65
2022/07/27 06:39:37;;;;;;;;;;;14.80;53.00;;;;;;5071374;28;19924;-64
2022/07/27 06:42:03;;;;;;;;;;;14.80;53.00;;;;;;5068334;28;20272;-64
2022/07/27 06:44:30;;;;;;;;;;;14.70;53.20;;;;;;5078396;28;19913;-66
2022/07/27 06:46:56;;;;;;;;;;;14.70;53.60;;;;;;5076826;28;19991;-65
2022/07/27 06:49:23;;;;;;;;;;;14.70;53.50;;;;;;5066404;28;19912;-66
2022/07/27 06:51:50;;;;;;;;;;;14.60;54.20;;;;;;5067639;28;19947;-65
2022/07/27 06:54:16;;;;;;;;;;;14.60;53.70;;;;;;5067770;28;19913;-66
2022/07/27 06:56:43;;;;;;;;;;;14.60;53.30;;;;;;5071225;28;19913;-66
2022/07/27 06:59:10;;;;;;;;;;;14.50;53.50;;;;;;5071148;28;19916;-65
2022/07/27 07:01:36;;;;;;;;;;;14.50;54.00;;;;;;5066427;28;20315;-74
2022/07/27 07:04:03;;;;;;;;;;;14.50;54.00;;;;;;5067214;28;19999;-73
2022/07/27 07:06:29;;;;;;;;;;;14.40;54.50;;;;;;5071062;28;20263;-74
2022/07/27 07:08:56;;;;;;;;;;;14.40;55.10;;;;;;5069644;28;19912;-73
2022/07/27 07:11:23;;;;;;;;;;;14.40;55.30;;;;;;5068421;28;19912;-71
2022/07/27 07:13:49;;;;;;;;;;;14.40;55.20;;;;;;5062069;28;19912;-73
2022/07/27 07:16:16;;;;;;;;;;;14.30;55.20;;;;;;5071079;28;20259;-74
2022/07/27 07:18:42;;;;;;;;;;;14.30;55.10;;;;;;5053053;28;19909;-75
2022/07/27 07:21:09;;;;;;;;;;;14.30;55.30;;;;;;5058505;28;19912;-66
2022/07/27 07:23:35;;;;;;;;;;;14.30;54.90;;;;;;5058385;28;19970;-65
2022/07/27 07:26:02;;;;;;;;;;;14.30;54.80;;;;;;5070128;28;19913;-64
2022/07/27 07:28:28;;;;;;;;;;;14.20;54.60;;;;;;5070497;28;19920;-65
2022/07/27 07:30:55;;;;;;;;;;;14.20;55.00;;;;;;5070610;28;19912;-65
2022/07/27 07:33:22;;;;;;;;;;;14.20;55.20;;;;;;5056577;28;19928;-65
2022/07/27 07:35:48;;;;;;;;;;;14.20;55.00;;;;;;5070052;28;20281;-65
2022/07/27 07:38:15;;;;;;;;;;;14.10;54.90;;;;;;5070167;28;19919;-66
2022/07/27 07:40:41;;;;;;;;;;;14.10;54.80;;;;;;5070126;28;19924;-66
2022/07/27 07:43:08;;;;;;;;;;;14.10;55.10;;;;;;5069808;28;19926;-65
2022/07/27 07:45:36;;;;;;;;;;;14.10;55.10;;;;;;5069975;28;19917;-66
2022/07/27 07:48:04;;;;;;;;;;;14.10;55.30;;;;;;5069951;28;20285;-65
2022/07/27 07:50:31;;;;;;;;;;;14.00;55.60;;;;;;5069712;28;19912;-66
2022/07/27 07:52:57;;;;;;;;;;;14.00;55.70;;;;;;5063796;28;19916;-66
2022/07/27 07:55:25;;;;;;;;;;;14.00;55.50;;;;;;5067936;28;20449;-66
2022/07/27 07:57:51;;;;;;;;;;;13.90;55.80;;;;;;5070224;28;19916;-65
2022/07/27 08:00:18;;;;;;;;;;;13.90;56.00;;;;;;5044710;28;20306;-72
2022/07/27 08:02:54;;;;;;;;;;;13.90;56.50;;;;;;5060570;28;19916;-67
2022/07/27 08:05:20;;;;;;;;;;;13.90;56.60;;;;;;5069534;28;19912;-66
2022/07/27 08:07:47;;;;;;;;;;;13.90;56.60;;;;;;5069576;28;19962;-66
2022/07/27 08:10:14;;;;;;;;;;;13.80;56.60;;;;;;5069752;28;19917;-66
2022/07/27 08:12:41;;;;;;;;;;;13.80;56.80;;;;;;5060550;28;19928;-66
2022/07/27 08:15:08;;;;;;;;;;;13.80;56.90;;;;;;5069589;28;19908;-67
2022/07/27 08:17:34;;;;;;;;;;;13.80;56.90;;;;;;5069842;28;19913;-67
2022/07/27 08:20:01;;;;;;;;;;;13.80;57.40;;;;;;5069828;28;20024;-63
2022/07/27 08:22:28;;;;;;;;;;;13.70;57.40;;;;;;5066168;28;19913;-65
2022/07/27 08:24:54;;;;;;;;;;;13.70;57.90;;;;;;5068096;28;19931;-64
2022/07/27 08:27:21;;;;;;;;;;;13.70;58.80;;;;;;5069356;28;19917;-66
2022/07/27 08:29:47;;;;;;;;;;;13.70;59.30;;;;;;5069498;28;19913;-66
2022/07/27 08:32:14;;;;;;;;;;;13.70;59.40;;;;;;5062020;28;19921;-65
2022/07/27 08:34:40;;;;;;;;;;;13.70;59.50;;;;;;5064834;28;19978;-64
2022/07/27 08:37:07;;;;;;;;;;;13.60;59.60;;;;;;5069428;28;19963;-66
2022/07/27 08:39:33;;;;;;;;;;;13.60;59.90;;;;;;5069110;28;20460;-65
2022/07/27 08:42:03;;;;;;;;;;;13.60;59.80;;;;;;5068870;28;20621;-64
2022/07/27 08:44:30;;;;;;;;;;;13.60;59.80;;;;;;5069612;28;20009;-68
2022/07/27 08:46:56;;;;;;;;;;;13.60;59.50;;;;;;5068553;28;19912;-65
2022/07/27 08:49:23;;;;;;;;;;;13.50;59.20;;;;;;5069140;28;19909;-66
2022/07/27 08:51:50;;;;;;;;;;;13.60;58.90;;;;;;5066686;28;19986;-66
2022/07/27 08:54:16;;;;;;;;;;;13.50;58.30;;;;;;5064185;28;19923;-66
2022/07/27 08:56:43;;;;;;;;;;;13.60;58.70;;;;;;5051493;28;20396;-66
2022/07/27 08:59:09;;;;;;;;;;;13.60;58.10;;;;;;5069425;28;19974;-67
2022/07/27 09:01:36;;;;;;;;;;;13.60;57.70;;;;;;5067990;28;19915;-67
2022/07/27 09:04:02;;;;;;;;;;;13.60;57.80;;;;;;5064535;28;19913;-67
2022/07/27 09:06:48;;;;;;;;;;;13.70;58.30;;;;;;5069014;28;20050;-66
2022/07/27 09:09:15;;;;;;;;;;;13.60;58.30;;;;;;5068946;28;19962;-66
2022/07/27 09:11:42;;;;;;;;;;;13.60;58.40;;;;;;5068547;28;20336;-64
2022/07/27 09:14:10;;;;;;;;;;;13.60;58.20;;;;;;5063278;28;20370;-66
2022/07/27 09:16:36;;;;;;;;;;;13.60;58.40;;;;;;5068941;28;19912;-62
2022/07/27 09:19:04;;;;;;;;;;;13.60;58.50;;;;;;5069299;28;19960;-64
2022/07/27 09:21:30;;;;;;;;;;;13.60;58.20;;;;;;5080142;28;19916;-64
2022/07/27 09:24:03;;;;;;;;;;;13.50;58.40;;;;;;5068508;28;20299;-62
2022/07/27 09:26:29;;;;;;;;;;;13.50;58.90;;;;;;5068804;28;19909;-65
2022/07/27 09:29:01;;;;;;;;;;;13.50;58.70;;;;;;5068453;28;19919;-63
2022/07/27 09:31:27;;;;;;;;;;;13.50;58.60;;;;;;5068633;28;19913;-62
2022/07/27 09:33:55;;;;;;;;;;;13.40;59.30;;;;;;5066937;28;19927;-64
2022/07/27 09:36:22;;;;;;;;;;;13.40;58.40;;;;;;5068913;28;20256;-63
2022/07/27 09:38:50;;;;;;;;;;;13.40;59.30;;;;;;5068524;28;20001;-64
2022/07/27 09:41:16;;;;;;;;;;;13.40;58.80;;;;;;5068714;28;19912;-64
2022/07/27 09:43:47;;;;;;;;;;;13.40;59.60;;;;;;5050174;28;19916;-63
2022/07/27 09:46:13;;;;;;;;;;;13.30;59.80;;;;;;5068869;28;20366;-65
2022/07/27 09:48:40;;;;;;;;;;;13.30;60.00;;;;;;5068614;28;19908;-64
2022/07/27 09:51:08;;;;;;;;;;;13.30;60.40;;;;;;5063689;28;19917;-65
2022/07/27 09:53:35;;;;;;;;;;;13.30;60.60;;;;;;5063674;28;19917;-63
2022/07/27 09:56:03;;;;;;;;;;;13.30;60.80;;;;;;5066300;28;19916;-63
2022/07/27 09:58:57;;;;;;;;;;;13.30;60.10;;;;;;5071580;28;19966;-67
2022/07/27 10:01:28;;;;;;;;;;;13.20;60.40;;;;;;5068262;28;19928;-64
2022/07/27 10:04:01;;;;;;;;;;;13.20;60.50;;;;;;5070039;28;19920;-64
2022/07/27 10:06:28;;;;;;;;;;;13.20;61.20;;;;;;5071029;28;19955;-65
2022/07/27 10:08:55;;;;;;;;;;;13.20;61.70;;;;;;5071693;28;19913;-64
2022/07/27 10:11:22;;;;;;;;;;;13.20;61.30;;;;;;5071541;28;19916;-65
2022/07/27 10:13:48;;;;;;;;;;;13.20;60.90;;;;;;5071575;28;19916;-73
2022/07/27 10:16:16;;;;;;;;;;;13.20;61.30;;;;;;5068196;28;20060;-62
2022/07/27 10:18:49;;;;;;;;;;;13.10;61.10;;;;;;5071053;28;19924;-63
2022/07/27 10:21:15;;;;;;;;;;;13.10;61.40;;;;;;5077376;28;20285;-63
2022/07/27 10:23:52;;;;;;;;;;;13.10;61.40;;;;;;5043620;28;19925;-64
2022/07/27 10:26:20;;;;;;;;;;;13.10;61.40;;;;;;5032271;28;19913;-63
2022/07/27 10:28:50;;;;;;;;;;;13.10;61.70;;;;;;5050592;28;19912;-63
2022/07/27 10:31:17;;;;;;;;;;;13.00;62.20;;;;;;5045959;28;20114;-65
2022/07/27 10:33:44;;;;;;;;;;;13.00;62.10;;;;;;5045469;28;19942;-64
2022/07/27 10:36:23;;;;;;;;;;;13.00;62.70;;;;;;5050697;28;19916;-64
2022/07/27 10:38:50;;;;;;;;;;;13.00;61.60;;;;;;5041472;28;19920;-64
2022/07/27 10:41:21;;;;;;;;;;;12.90;62.10;;;;;;5049223;28;19944;-65
2022/07/27 10:43:49;;;;;;;;;;;13.00;62.60;;;;;;5049734;28;19924;-64
2022/07/27 10:46:19;;;;;;;;;;;12.80;62.60;;;;;;5032245;28;19917;-65
2022/07/27 10:48:46;;;;;;;;;;;12.80;62.10;;;;;;5038841;28;19924;-64
2022/07/27 10:51:14;;;;;;;;;;;12.80;62.30;;;;;;5051049;28;20454;-66
2022/07/27 10:53:41;;;;;;;;;;;12.80;63.10;;;;;;5033424;28;19963;-65
2022/07/27 10:56:08;;;;;;;;;;;12.80;64.30;;;;;;5049798;28;20008;-65
2022/07/27 10:58:34;;;;;;;;;;;12.80;64.00;;;;;;5042217;28;19917;-65
2022/07/27 11:01:02;;;;;;;;;;;12.70;63.80;;;;;;5050210;28;19978;-66
2022/07/27 11:03:31;;;;;;;;;;;12.70;63.30;;;;;;5050369;28;20358;-64
2022/07/27 11:06:02;;;;;;;;;;;12.70;63.80;;;;;;5046873;28;19923;-67
2022/07/27 11:08:32;;;;;;;;;;;12.70;63.50;;;;;;5040575;28;20346;-67
2022/07/27 11:10:59;;;;;;;;;;;12.70;63.90;;;;;;5050349;28;19963;-68
2022/07/27 11:13:26;;;;;;;;;;;12.60;63.80;;;;;;5032487;28;19909;-67
2022/07/27 11:15:59;;;;;;;;;;;12.60;64.70;;;;;;5032477;28;19912;-67
2022/07/27 11:18:32;;;;;;;;;;;12.60;63.90;;;;;;5043055;28;19916;-65
2022/07/27 11:21:17;;;;;;;;;;;12.60;64.70;;;;;;5050905;28;19924;-65
2022/07/27 11:23:44;;;;;;;;;;;12.50;64.80;;;;;;5063173;28;19924;-67
2022/07/27 11:26:10;;;;;;;;;;;12.40;64.70;;;;;;5081940;28;19912;-66
2022/07/27 11:28:37;;;;;;;;;;;12.40;64.90;;;;;;5077650;28;19969;-66
2022/07/27 11:31:04;;;;;;;;;;;12.50;64.70;;;;;;5066655;28;19916;-67
2022/07/27 11:33:31;;;;;;;;;;;12.50;65.10;;;;;;5047003;28;20077;-67
2022/07/27 11:35:59;;;;;;;;;;;12.40;64.80;;;;;;5067522;28;20329;-66
2022/07/27 11:38:25;;;;;;;;;;;12.30;64.90;;;;;;5071824;28;19916;-67
2022/07/27 11:40:52;;;;;;;;;;;12.30;65.20;;;;;;5056962;28;19932;-66
2022/07/27 11:43:37;;;;;;;;;;;12.30;64.30;;;;;;5062481;28;19913;-66
2022/07/27 11:46:22;;;;;;;;;;;12.30;64.90;;;;;;5070528;28;19920;-65
2022/07/27 11:48:49;;;;;;;;;;;12.40;64.60;;;;;;5072562;28;20271;-65
2022/07/27 11:51:16;;;;;;;;;;;12.30;65.30;;;;;;5072363;28;20614;-67
2022/07/27 11:53:42;;;;;;;;;;;12.30;65.10;;;;;;5065300;28;19985;-66
2022/07/27 11:56:09;;;;;;;;;;;12.30;64.90;;;;;;5051105;28;19975;-67
2022/07/27 11:58:54;;;;;;;;;;;12.30;65.00;;;;;;5073838;28;20267;-63
2022/07/27 12:01:33;;;;;;;;;;;12.30;65.10;;;;;;5063591;28;19925;-66
2022/07/27 12:04:09;;;;;;;;;;;12.30;65.50;;;;;;5078092;28;20290;-65
2022/07/27 12:06:37;;;;;;;;;;;12.20;66.20;;;;;;5073752;28;19917;-66
2022/07/27 12:09:04;;;;;;;;;;;12.20;66.90;;;;;;5074597;28;19916;-65
2022/07/27 12:11:52;;;;;;;;;;;12.20;66.90;;;;;;5066021;28;20648;-65
2022/07/27 12:14:19;;;;;;;;;;;12.20;67.00;;;;;;5071562;28;20419;-66
2022/07/27 12:16:46;;;;;;;;;;;12.20;66.70;;;;;;5053665;28;19923;-65
2022/07/27 12:19:20;;;;;;;;;;;12.20;66.50;;;;;;5082534;28;19920;-65
2022/07/27 12:21:54;;;;;;;;;;;12.20;66.70;;;;;;5074539;28;19925;-64
2022/07/27 12:24:30;;;;;;;;;;;12.20;67.10;;;;;;5062890;28;19924;-64
2022/07/27 12:27:03;;;;;;;;;;;12.20;66.50;;;;;;5068646;28;19919;-64
2022/07/27 12:29:30;;;;;;;;;;;12.20;66.40;;;;;;5061047;28;20452;-65
2022/07/27 12:32:00;;;;;;;;;;;12.20;66.60;;;;;;5074600;28;20278;-67
2022/07/27 12:34:31;;;;;;;;;;;12.20;66.60;;;;;;5066032;28;20378;-64
2022/07/27 12:36:57;;;;;;;;;;;12.10;66.60;;;;;;5062149;28;19912;-64
2022/07/27 12:39:25;;;;;;;;;;;12.10;66.70;;;;;;5078911;28;19985;-65
2022/07/27 12:42:01;;;;;;;;;;;12.10;66.50;;;;;;5065704;28;19912;-64
2022/07/27 12:44:31;;;;;;;;;;;12.10;66.90;;;;;;5067484;28;19923;-63
2022/07/27 12:47:01;;;;;;;;;;;12.10;66.90;;;;;;5066115;28;19917;-64
2022/07/27 12:49:36;;;;;;;;;;;12.10;66.50;;;;;;5067698;28;19916;-63
2022/07/27 12:52:06;;;;;;;;;;;12.10;67.30;;;;;;5065462;28;20011;-64
2022/07/27 12:54:33;;;;;;;;;;;12.00;67.10;;;;;;5061867;28;19917;-63
2022/07/27 12:57:00;;;;;;;;;;;12.00;67.10;;;;;;5068077;28;19912;-64
2022/07/27 12:59:26;;;;;;;;;;;12.00;67.70;;;;;;5067098;28;20381;-63
2022/07/27 13:01:54;;;;;;;;;;;12.00;67.90;;;;;;5067310;28;20342;-65
2022/07/27 13:28:49;;;;;;;;;;;11.80;69.00;;;;;;5086386;28;19935;-65
2022/07/27 13:31:16;;;;;;;;;;;11.70;69.00;;;;;;5091255;28;20393;-65
2022/07/27 13:33:43;;;;;;;;;;;11.80;69.50;;;;;;5082278;28;19912;-66
2022/07/27 13:36:09;;;;;;;;;;;11.70;69.30;;;;;;5093658;28;19951;-66
2022/07/27 13:38:36;;;;;;;;;;;11.70;69.40;;;;;;5089509;28;20313;-65
2022/07/27 13:41:02;;;;;;;;;;;11.70;69.60;;;;;;5094258;28;20295;-65
2022/07/27 13:43:29;;;;;;;;;;;11.70;69.70;;;;;;5089352;28;19912;-65
2022/07/27 13:45:56;;;;;;;;;;;11.70;69.60;;;;;;5095216;28;19908;-65
2022/07/27 13:48:22;;;;;;;;;;;11.70;69.90;;;;;;5089773;28;19912;-65
2022/07/27 13:50:49;;;;;;;;;;;11.70;70.60;;;;;;5093733;28;19908;-65
2022/07/27 13:53:16;;;;;;;;;;;11.60;70.80;;;;;;5094751;28;19962;-64
2022/07/27 13:55:43;;;;;;;;;;;11.50;70.40;;;;;;5093550;28;20003;-65
2022/07/27 13:58:12;;;;;;;;;;;11.50;71.10;;;;;;5093442;28;20298;-64
2022/07/27 14:00:39;;;;;;;;;;;11.50;71.30;;;;;;5090450;28;19946;-65
2022/07/27 14:03:08;;;;;;;;;;;11.50;71.20;;;;;;5094944;28;19920;-65
2022/07/27 14:05:35;;;;;;;;;;;11.50;71.30;;;;;;5093129;28;20325;-65
2022/07/27 14:08:05;;;;;;;;;;;11.50;71.30;;;;;;5090700;28;19916;-64
2022/07/27 14:10:38;;;;;;;;;;;11.50;71.80;;;;;;5092671;28;20378;-65
2022/07/27 14:13:05;;;;;;;;;;;11.50;71.50;;;;;;5085325;28;19919;-64
2022/07/27 14:15:32;;;;;;;;;;;11.50;71.20;;;;;;5093705;28;19912;-64
2022/07/27 14:17:58;;;;;;;;;;;11.50;70.90;;;;;;5094321;28;19908;-64
2022/07/27 14:20:25;;;;;;;;;;;11.50;71.00;;;;;;5084867;28;19942;-64
2022/07/27 14:22:52;;;;;;;;;;;11.50;70.90;;;;;;5092803;28;21476;-65
2022/07/27 14:25:18;;;;;;;;;;;11.50;70.40;;;;;;5092852;28;19913;-65
2022/07/27 14:27:45;;;;;;;;;;;11.60;70.80;;;;;;5093041;28;19919;-65
2022/07/27 14:30:12;;;;;;;;;;;11.50;71.00;;;;;;5084293;28;19928;-65
2022/07/27 14:32:39;;;;;;;;;;;11.50;71.20;;;;;;5088001;28;19912;-65
2022/07/27 14:35:06;;;;;;;;;;;11.50;71.40;;;;;;5092576;28;20316;-65
2022/07/27 14:37:35;;;;;;;;;;;11.50;71.70;;;;;;5093623;28;19954;-65
2022/07/27 14:40:02;;;;;;;;;;;11.40;72.10;;;;;;5088229;28;20461;-65
2022/07/27 14:42:28;;;;;;;;;;;11.40;72.50;;;;;;5093765;28;20251;-65
2022/07/27 14:44:55;;;;;;;;;;;11.30;72.20;;;;;;5091555;28;19912;-65